createdAt,value
2019-02-04T00:09:48.459Z,2.12
2019-02-04T00:19:48.463Z,2.28
2019-02-04T00:29:48.587Z,2.09
2019-02-04T00:39:48.422Z,1.91
2019-02-04T00:49:48.431Z,2.08
2019-02-04T00:59:48.581Z,2.53
2019-02-04T01:09:48.474Z,2.84
2019-02-04T01:19:48.479Z,2.85
2019-02-04T01:29:48.501Z,3.17
2019-02-04T01:39:48.602Z,4.27
2019-02-04T01:49:48.473Z,4.89
2019-02-04T01:59:48.509Z,4.11
2019-02-04T02:09:48.428Z,3.64
2019-02-04T02:19:48.500Z,3.87
2019-02-04T02:29:48.497Z,3.72
2019-02-04T02:39:48.569Z,3.08
2019-02-04T02:49:48.392Z,2.95
2019-02-04T02:59:48.486Z,2.21
2019-02-04T03:09:48.568Z,1.72
2019-02-04T03:19:48.544Z,2.49
2019-02-04T03:29:48.381Z,2.80
2019-02-04T03:39:48.389Z,2.85
2019-02-04T03:49:48.472Z,2.46
2019-02-04T03:59:48.479Z,2.94
2019-02-04T04:09:49.361Z,2.95
2019-02-04T04:19:48.432Z,2.86
2019-02-04T04:29:49.347Z,3.18
2019-02-04T04:39:48.398Z,2.84
2019-02-04T04:49:48.451Z,2.48
2019-02-04T04:59:48.371Z,2.00
2019-02-04T05:09:48.419Z,1.67
2019-02-04T05:19:48.359Z,2.11
2019-02-04T05:29:48.266Z,2.43
2019-02-04T05:39:48.462Z,2.72
2019-02-04T05:49:49.528Z,3.23
2019-02-04T05:59:48.397Z,3.89
2019-02-04T06:09:48.401Z,3.71
2019-02-04T06:19:48.501Z,3.84
2019-02-04T06:29:48.447Z,3.72
2019-02-04T06:39:48.460Z,3.61
2019-02-04T06:49:48.543Z,3.25
2019-02-04T06:59:48.639Z,3.37
2019-02-04T07:09:48.445Z,3.91
2019-02-04T07:19:48.407Z,3.88
2019-02-04T07:29:48.492Z,3.53
2019-02-04T07:39:48.550Z,3.73
2019-02-04T07:49:48.402Z,4.20
2019-02-04T07:59:48.565Z,3.79
2019-02-04T08:09:48.399Z,3.69
2019-02-04T08:19:48.369Z,4.18
2019-02-04T08:29:48.449Z,4.19
2019-02-04T08:39:48.529Z,3.84
2019-02-04T08:49:58.001Z,3.59
2019-02-04T08:59:48.450Z,5.44
2019-02-04T09:09:49.381Z,4.80
2019-02-04T09:19:48.401Z,3.87
2019-02-04T09:29:50.413Z,4.46
2019-02-04T09:39:48.413Z,5.59
2019-02-04T09:49:49.441Z,4.28
2019-02-04T09:59:48.460Z,4.07
2019-02-04T10:09:48.363Z,5.19
2019-02-04T10:19:48.439Z,5.05
2019-02-04T10:29:48.296Z,6.87
2019-02-04T10:39:48.486Z,6.35
2019-02-04T10:49:48.274Z,6.01
2019-02-04T10:59:48.430Z,5.89
2019-02-04T11:09:48.439Z,5.07
2019-02-04T11:19:48.410Z,4.56
2019-02-04T11:29:48.434Z,6.45
2019-02-04T11:39:48.420Z,4.90
2019-02-04T11:49:48.302Z,4.75
2019-02-04T11:59:48.413Z,5.65
2019-02-04T12:09:48.328Z,5.19
2019-02-04T12:19:48.392Z,4.53
2019-02-04T12:29:48.360Z,3.08
2019-02-04T12:39:48.199Z,4.81
2019-02-04T12:49:48.406Z,5.98
2019-02-04T12:59:48.308Z,4.61
2019-02-04T13:09:48.323Z,5.58
2019-02-04T13:19:48.324Z,4.97
2019-02-04T13:29:48.441Z,4.69
2019-02-04T13:39:50.336Z,5.65
2019-02-04T13:49:48.423Z,4.20
2019-02-04T13:59:48.940Z,6.09
2019-02-04T14:09:48.542Z,5.73
2019-02-04T14:19:48.364Z,5.32
2019-02-04T14:29:48.391Z,4.42
2019-02-04T14:39:48.353Z,4.21
2019-02-04T14:49:48.413Z,4.51
2019-02-04T14:59:48.347Z,4.57
2019-02-04T15:09:48.197Z,4.42
2019-02-04T15:19:48.292Z,4.18
2019-02-04T15:29:48.302Z,4.36
2019-02-04T15:39:48.381Z,5.00
2019-02-04T15:49:50.671Z,3.75
2019-02-04T15:59:48.245Z,4.44
2019-02-04T16:09:49.241Z,5.27
2019-02-04T16:19:48.352Z,4.86
2019-02-04T16:29:48.215Z,5.76
2019-02-04T16:39:48.239Z,5.16
2019-02-04T16:49:48.234Z,4.51
2019-02-04T16:59:48.173Z,4.37
2019-02-04T17:09:48.153Z,3.79
2019-02-04T17:19:48.229Z,3.61
2019-02-04T17:29:48.215Z,5.62
2019-02-04T17:39:48.426Z,6.61
2019-02-04T17:49:48.240Z,5.43
2019-02-04T17:59:48.287Z,5.82
2019-02-04T18:09:48.141Z,5.67
2019-02-04T18:19:48.140Z,4.86
2019-02-04T18:29:48.186Z,6.23
2019-02-04T18:39:48.189Z,4.99
2019-02-04T18:49:48.506Z,4.94
2019-02-04T18:59:48.325Z,5.30
2019-02-04T19:09:48.281Z,5.35
2019-02-04T19:19:48.196Z,5.83
2019-02-04T19:29:48.290Z,5.88
2019-02-04T19:39:49.304Z,6.42
2019-02-04T19:49:48.223Z,5.54
2019-02-04T19:59:50.471Z,6.43
2019-02-04T20:09:48.115Z,5.93
2019-02-04T20:19:48.186Z,6.08
2019-02-04T20:29:48.078Z,5.73
2019-02-04T20:39:48.093Z,5.26
2019-02-04T20:49:48.169Z,5.45
2019-02-04T20:59:48.275Z,7.01
2019-02-04T21:09:48.181Z,5.28
2019-02-04T21:19:48.173Z,4.59
2019-02-04T21:29:48.158Z,5.56
2019-02-04T21:39:48.087Z,5.76
2019-02-04T21:49:48.420Z,5.86
2019-02-04T21:59:48.213Z,5.63
2019-02-04T22:09:47.989Z,4.97
2019-02-04T22:19:48.070Z,5.37
2019-02-04T22:29:48.083Z,5.05
2019-02-04T22:39:48.118Z,4.92
2019-02-04T22:49:51.243Z,5.39
2019-02-04T22:59:48.079Z,5.53
2019-02-04T23:09:48.111Z,5.11
2019-02-04T23:19:48.060Z,5.46
2019-02-04T23:29:48.165Z,4.89
2019-02-04T23:39:48.102Z,4.46
2019-02-04T23:49:48.062Z,5.27
2019-02-04T23:59:48.095Z,4.65
